Time;durP1;ratioP1;P1;durP2;ratioP2;P2;SDS_P1;SDS_P2;PMS_P1;PMS_P2;Temp;Humidity;BMP_temperature;BMP_pressure;BME280_temperature;BME280_humidity;BME280_pressure;Samples;Min_cycle;Max_cycle;Signal;HPM_P1;HPM_P2
2021/10/15 00:01:37;;;;;;;9.57;5.78;;;;;;;12.06;95.56;101609.25;10583688;28;20043;-62
2021/10/15 00:06:39;;;;;;;7.55;5.13;;;;;;;11.88;96.30;101605.78;10583894;28;20047;-62
2021/10/15 00:11:45;;;;;;;11.20;5.93;;;;;;;12.03;95.34;101605.94;10583542;28;20129;-62
2021/10/15 00:16:47;;;;;;;6.47;5.30;;;;;;;12.03;95.53;101592.81;10584021;28;20050;-62
2021/10/15 00:21:49;;;;;;;9.52;4.53;;;;;;;11.97;96.48;101585.25;10582810;28;20476;-62
2021/10/15 00:26:52;;;;;;;7.20;4.85;;;;;;;11.97;95.00;101578.25;10582974;28;20498;-62
2021/10/15 00:31:54;;;;;;;7.45;4.97;;;;;;;11.99;96.45;101578.16;10582553;28;20056;-62
2021/10/15 00:36:56;;;;;;;14.07;6.50;;;;;;;11.93;95.79;101567.97;10583065;28;20048;-62
2021/10/15 00:41:59;;;;;;;10.05;4.95;;;;;;;11.94;96.70;101552.16;10582798;28;20046;-62
2021/10/15 00:47:01;;;;;;;6.32;4.90;;;;;;;11.70;98.09;101557.69;10582554;28;20046;-62
2021/10/15 00:52:05;;;;;;;6.85;4.70;;;;;;;11.85;97.58;101542.06;10582090;28;20517;-61
2021/10/15 00:57:10;;;;;;;9.25;6.05;;;;;;;11.67;97.95;101538.63;10582220;28;20039;-62
2021/10/15 01:02:13;;;;;;;7.13;4.82;;;;;;;11.74;98.29;101536.53;10563942;28;20059;-62
2021/10/15 01:07:15;;;;;;;6.85;4.25;;;;;;;11.63;98.65;101529.19;10582193;28;20048;-62
2021/10/15 01:12:18;;;;;;;9.90;5.93;;;;;;;11.62;98.80;101506.53;10582526;28;20051;-61
2021/10/15 01:17:20;;;;;;;9.52;5.25;;;;;;;11.60;98.60;101517.09;10572982;28;20043;-62
2021/10/15 01:22:29;;;;;;;8.70;5.00;;;;;;;11.56;98.45;101512.09;10590265;28;20058;-62
2021/10/15 01:27:31;;;;;;;6.18;5.07;;;;;;;11.56;98.29;101499.81;10572247;28;20048;-62
2021/10/15 01:32:34;;;;;;;10.45;4.85;;;;;;;11.56;98.12;101488.47;10589749;28;20383;-62
2021/10/15 01:37:36;;;;;;;7.22;4.95;;;;;;;11.46;99.84;101509.06;10590130;28;20044;-62
2021/10/15 01:42:54;;;;;;;7.95;5.78;;;;;;;11.52;99.97;101500.91;10589670;28;20039;-62
2021/10/15 01:47:57;;;;;;;10.48;5.90;;;;;;;11.59;99.70;101509.31;10589460;28;20402;-62
2021/10/15 01:53:01;;;;;;;8.57;7.10;;;;;;;11.53;99.99;101500.81;10589086;28;20051;-62
2021/10/15 01:58:04;;;;;;;10.25;5.72;;;;;;;11.47;100.00;101497.66;10570728;28;20055;-62
2021/10/15 02:03:06;;;;;;;9.82;7.03;;;;;;;11.47;100.00;101490.63;10570725;28;20048;-62
2021/10/15 02:08:09;;;;;;;8.52;5.65;;;;;;;11.55;100.00;101486.75;10588516;28;20506;-62
2021/10/15 02:13:12;;;;;;;10.73;6.68;;;;;;;11.46;100.00;101478.44;10588258;28;20429;-62
2021/10/15 02:18:16;;;;;;;7.53;5.72;;;;;;;11.63;100.00;101463.63;10588505;28;20054;-62
2021/10/15 02:23:19;;;;;;;12.75;6.38;;;;;;;11.55;100.00;101453.53;10588544;28;20135;-62
2021/10/15 02:28:21;;;;;;;9.07;6.45;;;;;;;11.37;100.00;101447.44;10588338;28;20054;-61
2021/10/15 02:33:24;;;;;;;15.43;6.80;;;;;;;11.39;100.00;101445.59;10588013;28;20051;-62
2021/10/15 02:38:26;;;;;;;10.48;6.90;;;;;;;11.43;100.00;101441.03;10568942;28;20410;-62
2021/10/15 02:43:29;;;;;;;9.75;6.05;;;;;;;11.41;100.00;101435.88;10587469;28;20048;-62
2021/10/15 02:48:31;;;;;;;9.50;6.20;;;;;;;11.48;100.00;101432.03;10587467;28;20070;-62
2021/10/15 02:53:33;;;;;;;10.68;7.65;;;;;;;11.30;100.00;101425.09;10587081;28;20047;-62
2021/10/15 02:58:36;;;;;;;14.25;7.55;;;;;;;11.37;100.00;101421.22;10586590;28;20054;-62
2021/10/15 03:03:38;;;;;;;9.20;6.43;;;;;;;11.31;100.00;101422.41;10586801;28;20058;-62
2021/10/15 03:08:41;;;;;;;12.75;7.15;;;;;;;11.43;100.00;101410.44;10586193;28;20043;-62
2021/10/15 03:13:43;;;;;;;11.68;7.57;;;;;;;11.51;100.00;101408.25;10585930;28;20047;-62
2021/10/15 03:18:46;;;;;;;9.32;7.10;;;;;;;11.41;100.00;101406.19;10586274;28;20040;-62
2021/10/15 03:23:48;;;;;;;11.20;7.07;;;;;;;11.35;100.00;101396.88;10585600;28;20054;-62
2021/10/15 03:28:50;;;;;;;12.20;7.57;;;;;;;11.32;100.00;101389.16;10585395;28;20051;-62
2021/10/15 03:33:53;;;;;;;15.45;7.97;;;;;;;11.22;100.00;101387.94;10585421;28;20044;-62
2021/10/15 03:38:55;;;;;;;13.63;8.38;;;;;;;11.06;100.00;101377.38;10585218;28;20043;-62
2021/10/15 03:43:57;;;;;;;11.95;6.95;;;;;;;11.30;100.00;101373.50;10584982;28;20050;-62
2021/10/15 03:49:00;;;;;;;16.42;9.77;;;;;;;11.31;100.00;101369.97;10584555;28;20040;-62
2021/10/15 03:54:02;;;;;;;17.00;9.00;;;;;;;11.16;100.00;101368.09;10584674;28;20047;-62
2021/10/15 03:59:04;;;;;;;13.10;8.00;;;;;;;11.34;100.00;101371.56;10549334;28;20040;-62
2021/10/15 04:04:07;;;;;;;9.88;7.88;;;;;;;11.20;100.00;101367.03;10584160;28;20047;-62
2021/10/15 04:09:09;;;;;;;12.05;7.82;;;;;;;11.26;100.00;101368.50;10583749;28;20071;-62
2021/10/15 04:14:11;;;;;;;15.98;8.65;;;;;;;11.30;100.00;101364.81;10583931;28;20050;-62
2021/10/15 04:19:14;;;;;;;12.65;8.48;;;;;;;11.38;100.00;101365.25;10583266;28;20054;-62
2021/10/15 04:24:16;;;;;;;12.18;8.85;;;;;;;11.28;100.00;101353.53;10583028;28;20059;-62
2021/10/15 04:29:18;;;;;;;16.40;9.43;;;;;;;11.29;100.00;101355.22;10582842;28;20530;-62
2021/10/15 04:34:21;;;;;;;12.43;8.65;;;;;;;11.34;100.00;101347.97;10582900;28;20494;-62
2021/10/15 04:39:23;;;;;;;13.05;9.45;;;;;;;11.33;100.00;101359.38;10582473;28;20043;-62
2021/10/15 04:44:25;;;;;;;12.13;9.35;;;;;;;11.32;100.00;101342.81;10582500;28;20048;-62
2021/10/15 04:49:28;;;;;;;10.68;9.00;;;;;;;11.31;100.00;101340.25;10581508;28;20050;-62
2021/10/15 04:54:30;;;;;;;18.35;10.55;;;;;;;11.36;100.00;101330.38;10582069;28;20044;-62
2021/10/15 04:59:32;;;;;;;12.50;9.20;;;;;;;11.40;100.00;101329.31;10582025;28;20048;-62
2021/10/15 05:04:35;;;;;;;15.38;11.05;;;;;;;11.40;100.00;101336.31;10582452;28;20391;-62
2021/10/15 05:09:37;;;;;;;15.80;9.90;;;;;;;11.52;100.00;101333.06;10581836;28;20372;-62
2021/10/15 05:14:40;;;;;;;16.67;10.20;;;;;;;11.46;100.00;101334.22;10582468;28;20051;-61
2021/10/15 05:19:42;;;;;;;13.27;10.00;;;;;;;11.60;100.00;101330.03;10563539;28;20043;-62
2021/10/15 05:24:45;;;;;;;16.08;11.18;;;;;;;11.70;100.00;101331.22;10581889;28;20054;-62
2021/10/15 05:29:48;;;;;;;19.33;11.57;;;;;;;11.66;100.00;101325.28;10581259;28;20047;-62
2021/10/15 05:34:50;;;;;;;17.20;12.13;;;;;;;11.61;100.00;101326.47;10581998;28;20398;-62
2021/10/15 05:39:55;;;;;;;13.80;12.15;;;;;;;11.68;100.00;101323.47;10581076;28;20411;-61
2021/10/15 05:44:58;;;;;;;16.95;10.93;;;;;;;11.84;100.00;101323.47;10581102;28;20502;-62
2021/10/15 05:50:00;;;;;;;20.70;12.50;;;;;;;11.80;100.00;101315.84;10581595;28;20039;-62
2021/10/15 06:00:15;;;;;;;20.95;12.98;;;;;;;11.95;100.00;101315.03;10584385;28;20064;-62
2021/10/15 06:15:35;;;;;;;21.38;14.35;;;;;;;11.98;100.00;101308.78;10588530;28;20050;-62
2021/10/15 06:20:37;;;;;;;16.65;13.55;;;;;;;12.08;100.00;101304.72;10570354;28;20043;-62
2021/10/15 06:25:40;;;;;;;21.58;13.10;;;;;;;12.00;100.00;101309.53;10587867;28;20039;-62
2021/10/15 06:30:43;;;;;;;17.27;12.85;;;;;;;12.06;100.00;101323.16;10587548;28;20047;-62
2021/10/15 06:35:45;;;;;;;18.45;12.10;;;;;;;12.11;100.00;101315.03;10587740;28;20056;-62
2021/10/15 06:40:47;;;;;;;21.38;14.18;;;;;;;12.02;100.00;101320.78;10587125;28;20411;-62
2021/10/15 06:45:50;;;;;;;17.23;12.35;;;;;;;12.09;100.00;101327.41;10587450;28;20050;-62
2021/10/15 06:50:53;;;;;;;15.98;13.88;;;;;;;12.12;100.00;101326.38;10587063;28;20044;-62
2021/10/15 06:55:55;;;;;;;20.15;14.50;;;;;;;12.09;100.00;101332.66;10586862;28;20114;-62
2021/10/15 07:00:57;;;;;;;22.40;14.80;;;;;;;12.13;100.00;101336.81;10586211;28;20490;-61
2021/10/15 07:06:00;;;;;;;21.75;14.52;;;;;;;12.14;100.00;101356.00;10586683;28;20040;-61
2021/10/15 07:11:03;;;;;;;20.17;15.95;;;;;;;12.07;100.00;101348.50;10585857;28;20051;-61
2021/10/15 07:16:05;;;;;;;21.00;17.15;;;;;;;11.98;100.00;101364.72;10585933;28;20056;-60
2021/10/15 07:21:08;;;;;;;24.75;19.65;;;;;;;11.88;100.00;101363.50;10585625;28;20055;-60
2021/10/15 07:26:11;;;;;;;28.63;20.42;;;;;;;11.94;100.00;101392.06;10585939;28;20051;-60
2021/10/15 07:31:13;;;;;;;32.70;25.90;;;;;;;11.90;100.00;101424.59;10585228;28;20487;-61
2021/10/15 07:36:16;;;;;;;40.75;26.70;;;;;;;11.83;100.00;101454.72;10585126;28;20126;-62
2021/10/15 07:41:19;;;;;;;40.67;22.75;;;;;;;11.92;100.00;101453.44;10585210;28;20046;-62
2021/10/15 07:46:21;;;;;;;18.10;14.43;;;;;;;11.87;100.00;101466.78;10585486;28;20066;-61
2021/10/15 07:51:23;;;;;;;18.65;12.05;;;;;;;11.90;100.00;101484.97;10584533;28;20054;-61
2021/10/15 07:56:26;;;;;;;10.30;6.47;;;;;;;11.86;100.00;101491.31;10584362;28;20379;-61
2021/10/15 08:01:28;;;;;;;8.13;4.13;;;;;;;11.68;100.00;101507.06;10566149;28;20040;-61
2021/10/15 08:06:31;;;;;;;1.77;1.50;;;;;;;11.45;100.00;101539.69;10584057;28;20047;-60
2021/10/15 08:11:33;;;;;;;3.65;1.40;;;;;;;11.34;100.00;101542.81;10583856;28;20054;-61
2021/10/15 08:16:35;;;;;;;2.28;1.42;;;;;;;11.33;100.00;101549.00;10583933;28;20047;-61
2021/10/15 08:21:38;;;;;;;0.75;0.57;;;;;;;11.55;100.00;101541.84;10583266;28;20054;-61
2021/10/15 08:26:41;;;;;;;3.28;0.80;;;;;;;11.65;100.00;101553.56;10582989;28;20502;-61
2021/10/15 08:31:43;;;;;;;3.10;1.20;;;;;;;11.65;100.00;101569.31;10583435;28;20056;-61
2021/10/15 08:37:05;;;;;;;3.47;2.53;;;;;;;11.66;100.00;101569.22;10582529;28;20064;-61
2021/10/15 08:42:07;;;;;;;1.90;1.10;;;;;;;11.72;100.00;101573.34;10582554;28;20047;-61
2021/10/15 08:47:16;;;;;;;2.15;0.85;;;;;;;11.96;100.00;101588.81;10582721;28;20074;-61
2021/10/15 08:52:38;;;;;;;2.05;0.70;;;;;;;11.92;100.00;101590.75;10582750;28;20043;-61
2021/10/15 08:57:48;;;;;;;2.75;0.80;;;;;;;11.89;100.00;101596.94;10582468;28;20047;-61
2021/10/15 09:03:10;;;;;;;3.97;0.87;;;;;;;11.94;100.00;101593.28;10581987;28;20161;-60
2021/10/15 09:08:13;;;;;;;4.68;0.90;;;;;;;11.88;100.00;101595.28;10582231;28;20058;-61
2021/10/15 09:13:19;;;;;;;2.97;1.00;;;;;;;11.61;100.00;101620.22;10581660;28;20047;-61
2021/10/15 09:18:32;;;;;;;2.35;1.20;;;;;;;12.17;100.00;101616.59;10581934;28;20046;-61
2021/10/15 09:23:48;;;;;;;7.63;1.92;;;;;;;11.88;100.00;101624.13;10581627;28;20051;-61
2021/10/15 09:28:50;;;;;;;3.90;1.35;;;;;;;11.77;100.00;101638.69;10581776;28;20043;-61
2021/10/15 09:33:57;;;;;;;5.40;1.17;;;;;;;12.12;100.00;101639.63;10582553;28;20418;-61
2021/10/15 09:39:22;;;;;;;4.20;1.92;;;;;;;12.06;100.00;101650.41;10590415;28;20044;-61
2021/10/15 09:44:32;;;;;;;11.77;1.77;;;;;;;12.14;100.00;101650.00;10589596;28;20494;-61
2021/10/15 09:49:53;;;;;;;11.48;1.90;;;;;;;12.69;100.00;101647.16;10589296;28;20052;-61
2021/10/15 09:55:14;;;;;;;7.65;1.85;;;;;;;12.71;100.00;101663.72;10589303;28;20048;-61
2021/10/15 10:00:30;;;;;;;14.05;2.00;;;;;;;13.21;100.00;101669.81;10589005;28;20510;-61
2021/10/15 10:05:33;;;;;;;5.88;1.70;;;;;;;13.55;100.00;101674.09;10588892;28;20047;-61
2021/10/15 10:10:36;;;;;;;8.60;1.85;;;;;;;13.05;100.00;101688.19;10589101;28;20048;-61
2021/10/15 10:15:44;;;;;;;7.30;2.00;;;;;;;13.43;100.00;101684.44;10588255;28;20051;-60
2021/10/15 10:20:52;;;;;;;6.38;1.40;;;;;;;14.78;100.00;101691.59;10588082;28;20398;-60
2021/10/15 10:26:16;;;;;;;6.78;1.80;;;;;;;16.88;100.00;101695.56;10570102;28;20520;-61
2021/10/15 10:31:22;;;;;;;9.60;2.00;;;;;;;18.70;92.28;101689.34;10588158;28;20048;-61
2021/10/15 10:36:28;;;;;;;8.40;1.73;;;;;;;15.57;86.24;101700.75;10587864;28;20086;-61
2021/10/15 10:41:31;;;;;;;7.03;1.95;;;;;;;15.72;89.07;101705.03;10588012;28;20054;-60
2021/10/15 10:46:33;;;;;;;8.65;1.83;;;;;;;15.37;93.41;101707.28;10586763;28;20142;-61
2021/10/15 10:51:35;;;;;;;9.65;2.10;;;;;;;16.80;81.03;101708.44;10568853;28;20495;-61
2021/10/15 10:56:44;;;;;;;7.30;1.58;;;;;;;16.06;88.92;101710.78;10586766;28;20502;-61
2021/10/15 11:01:50;;;;;;;11.68;2.13;;;;;;;16.71;84.20;101715.22;10587272;28;20049;-61
2021/10/15 11:06:57;;;;;;;7.28;2.25;;;;;;;17.96;78.34;101718.78;10586633;28;20083;-61
2021/10/15 11:11:59;;;;;;;8.85;2.08;;;;;;;18.57;77.03;101721.25;10568087;28;20387;-61
2021/10/15 11:17:11;;;;;;;6.53;1.95;;;;;;;18.70;71.55;101721.16;10585637;28;20507;-61
2021/10/15 11:22:13;;;;;;;5.28;1.65;;;;;;;18.29;69.61;101714.56;10586175;28;20066;-61
2021/10/15 11:27:17;;;;;;;7.32;1.30;;;;;;;19.04;61.73;101713.25;10567698;28;20051;-61
2021/10/15 11:32:36;;;;;;;16.38;4.53;;;;;;;19.05;63.03;101718.44;10567250;28;20044;-61
2021/10/15 11:37:42;;;;;;;5.03;1.83;;;;;;;18.90;66.90;101732.91;10586148;28;20426;-60
2021/10/15 11:42:44;;;;;;;10.93;2.85;;;;;;;19.21;67.68;101728.69;10584991;28;20052;-61
2021/10/15 11:48:17;;;;;;;7.63;2.45;;;;;;;18.43;58.50;101740.03;10585200;28;20048;-61
2021/10/15 11:53:47;;;;;;;5.30;1.55;;;;;;;17.33;61.88;101749.78;10575452;28;20048;-61
2021/10/15 11:58:55;;;;;;;8.18;1.63;;;;;;;16.37;62.60;101751.00;10584171;28;20050;-61
2021/10/15 12:04:11;;;;;;;4.78;2.00;;;;;;;16.29;68.13;101753.31;10584309;28;20055;-61
2021/10/15 12:09:16;;;;;;;7.60;1.70;;;;;;;15.43;73.12;101759.66;10584226;28;20126;-61
2021/10/15 12:14:33;;;;;;;8.68;2.30;;;;;;;15.42;72.36;101764.09;10583717;28;20052;-61
2021/10/15 12:19:37;;;;;;;7.68;2.05;;;;;;;16.94;66.49;101770.16;10583557;28;20044;-61
2021/10/15 12:25:01;;;;;;;5.63;1.30;;;;;;;15.84;68.34;101773.88;10583544;28;20043;-62
2021/10/15 12:30:15;;;;;;;7.80;1.52;;;;;;;15.22;73.13;101777.69;10583474;28;20051;-62
2021/10/15 12:35:20;;;;;;;6.22;1.73;;;;;;;14.84;78.02;101778.22;10583107;28;20398;-62
2021/10/15 12:40:32;;;;;;;9.05;2.42;;;;;;;14.27;80.39;101785.00;10583159;28;20054;-62
2021/10/15 12:45:46;;;;;;;6.53;1.50;;;;;;;15.55;76.00;101785.31;10582585;28;20048;-62
2021/10/15 12:51:10;;;;;;;7.00;1.92;;;;;;;16.33;66.97;101784.72;10583138;28;20044;-62
2021/10/15 12:56:29;;;;;;;8.73;2.08;;;;;;;16.76;63.92;101788.94;10582260;28;20491;-62
2021/10/15 13:01:33;;;;;;;14.75;2.22;;;;;;;15.64;64.58;101796.22;10564434;28;20062;-62
2021/10/15 13:06:36;;;;;;;6.95;2.13;;;;;;;14.70;73.02;101802.75;10564236;28;20557;-62
2021/10/15 13:11:39;;;;;;;10.25;2.55;;;;;;;14.33;74.22;101802.22;10581375;28;20050;-62
2021/10/15 13:16:41;;;;;;;13.60;3.65;;;;;;;14.54;74.72;101808.06;10582101;28;20047;-62
2021/10/15 13:21:43;;;;;;;15.77;3.28;;;;;;;14.86;72.65;101810.59;10547415;28;20067;-62
2021/10/15 13:26:46;;;;;;;15.73;2.70;;;;;;;15.08;71.65;101812.81;10582014;28;20043;-62
2021/10/15 13:31:48;;;;;;;11.18;2.60;;;;;;;14.66;72.07;101810.00;10581502;28;20408;-63
2021/10/15 13:36:50;;;;;;;15.10;2.88;;;;;;;14.68;65.30;101804.66;10581853;28;20059;-62
2021/10/15 13:52:29;;;;;;;10.07;3.03;;;;;;;15.02;69.59;101811.38;10581216;28;20048;-62
2021/10/15 13:57:32;;;;;;;10.43;2.65;;;;;;;15.25;66.82;101814.44;10581766;28;20050;-63
2021/10/15 14:02:40;;;;;;;14.82;3.28;;;;;;;14.50;69.95;101812.63;10580828;28;20048;-63
2021/10/15 14:07:42;;;;;;;10.80;2.53;;;;;;;14.19;68.13;101823.22;10580648;28;20511;-63
2021/10/15 14:12:45;;;;;;;12.48;2.50;;;;;;;14.65;67.68;101823.28;10563188;28;20075;-63
2021/10/15 14:17:51;;;;;;;15.50;3.17;;;;;;;14.57;64.25;101826.31;10580706;28;20052;-63
2021/10/15 14:22:54;;;;;;;15.40;3.70;;;;;;;13.84;63.02;101831.31;10586743;28;20055;-62
2021/10/15 14:27:56;;;;;;;11.25;3.10;;;;;;;13.45;65.51;101837.78;10587994;28;20058;-62
2021/10/15 14:33:00;;;;;;;10.85;2.58;;;;;;;13.86;62.82;101834.72;10587521;28;20044;-62
2021/10/15 14:38:03;;;;;;;9.48;2.38;;;;;;;20.55;45.29;101840.09;10587908;28;20078;-62
2021/10/15 14:43:09;;;;;;;7.30;1.95;;;;;;;23.18;38.17;101842.69;10587201;28;20052;-63
2021/10/15 14:48:11;;;;;;;7.28;1.90;;;;;;;14.59;53.24;101852.59;10587463;28;20055;-63
2021/10/15 14:53:14;;;;;;;11.60;2.15;;;;;;;13.53;59.76;101856.63;10586826;28;20134;-63
2021/10/15 14:58:17;;;;;;;9.57;2.50;;;;;;;13.22;61.22;101863.47;10586891;28;20055;-62
2021/10/15 15:03:20;;;;;;;9.65;2.38;;;;;;;13.38;65.86;101864.41;10586393;28;20043;-62
2021/10/15 15:08:23;;;;;;;8.65;1.65;;;;;;;13.00;69.20;101864.56;10586586;28;20055;-63
2021/10/15 15:13:26;;;;;;;15.45;2.55;;;;;;;12.85;70.05;101869.75;10568113;28;20059;-63
2021/10/15 15:18:29;;;;;;;11.80;2.33;;;;;;;13.10;69.07;101872.00;10585814;28;20058;-62
2021/10/15 15:23:35;;;;;;;11.95;2.45;;;;;;;12.85;71.80;101883.75;10585879;28;20051;-63
2021/10/15 15:28:40;;;;;;;14.35;3.10;;;;;;;12.26;74.33;101880.47;10585463;28;20043;-63
2021/10/15 15:33:42;;;;;;;12.40;3.53;;;;;;;12.20;74.15;101880.75;10584272;28;20514;-63
2021/10/15 15:38:44;;;;;;;13.07;3.42;;;;;;;12.33;73.82;101887.13;10584913;28;20530;-62
2021/10/15 15:43:48;;;;;;;15.50;2.60;;;;;;;11.94;75.64;101888.06;10584523;28;20504;-63
2021/10/15 15:48:51;;;;;;;13.68;3.42;;;;;;;11.80;79.87;101893.91;10584654;28;20570;-62
2021/10/15 15:53:53;;;;;;;12.70;2.30;;;;;;;11.71;73.48;101897.78;10584687;28;20047;-63
2021/10/15 15:58:55;;;;;;;8.40;2.60;;;;;;;11.59;75.25;101900.94;10584597;28;20047;-62
2021/10/15 16:03:58;;;;;;;12.38;2.58;;;;;;;11.01;79.29;101909.56;10584190;28;20050;-62
2021/10/15 16:09:01;;;;;;;11.57;2.33;;;;;;;11.06;80.78;101906.72;10583895;28;20044;-63
2021/10/15 16:14:04;;;;;;;11.07;2.13;;;;;;;10.76;83.16;101915.78;10583744;28;20501;-62
2021/10/15 16:19:06;;;;;;;16.02;3.17;;;;;;;10.56;84.91;101920.97;10583684;28;20125;-63
2021/10/15 16:24:08;;;;;;;12.32;2.47;;;;;;;10.12;88.13;101926.97;10583558;28;20043;-63
2021/10/15 16:29:12;;;;;;;12.45;3.22;;;;;;;9.76;91.38;101934.38;10583494;28;20048;-63
2021/10/15 16:34:14;;;;;;;15.45;3.10;;;;;;;9.59;97.23;101935.84;10583680;28;20060;-63
2021/10/15 16:39:18;;;;;;;13.98;3.65;;;;;;;9.36;99.96;101947.06;10582979;28;20126;-62
2021/10/15 16:44:20;;;;;;;10.50;2.40;;;;;;;9.29;100.00;101951.66;10582660;28;20054;-63
2021/10/15 16:49:22;;;;;;;13.88;3.38;;;;;;;9.05;100.00;101958.56;10582407;28;20050;-62
2021/10/15 16:54:25;;;;;;;9.25;2.30;;;;;;;9.10;100.00;101961.88;10582238;28;20048;-63
2021/10/15 16:59:27;;;;;;;10.68;2.70;;;;;;;8.85;100.00;101974.03;10564116;28;20444;-62
2021/10/15 17:04:31;;;;;;;14.82;4.32;;;;;;;8.63;100.00;101972.06;10582049;28;20050;-62
2021/10/15 17:09:34;;;;;;;14.40;3.17;;;;;;;8.54;100.00;101980.19;10581891;28;20047;-62
2021/10/15 17:14:36;;;;;;;18.17;3.10;;;;;;;8.32;100.00;101987.75;10582123;28;20051;-62
2021/10/15 17:19:38;;;;;;;9.23;2.33;;;;;;;8.22;100.00;101996.72;10563749;28;20039;-63
2021/10/15 17:24:41;;;;;;;18.85;3.45;;;;;;;8.24;100.00;102002.75;10581389;28;20050;-63
2021/10/15 17:29:44;;;;;;;13.80;2.70;;;;;;;8.07;100.00;102004.09;10581393;28;20055;-60
2021/10/15 17:34:46;;;;;;;10.73;3.83;;;;;;;8.06;100.00;102009.38;10581748;28;20062;-61
2021/10/15 17:39:48;;;;;;;11.23;2.92;;;;;;;8.12;100.00;102017.88;10580687;28;20384;-61
2021/10/15 17:44:51;;;;;;;9.30;4.80;;;;;;;7.94;100.00;102029.66;10581396;28;20058;-61
2021/10/15 17:49:53;;;;;;;13.02;2.67;;;;;;;7.79;100.00;102032.66;10581117;28;20047;-61
2021/10/15 17:54:56;;;;;;;8.48;3.10;;;;;;;7.85;100.00;102034.25;10583361;28;20051;-61
2021/10/15 17:59:59;;;;;;;19.35;7.18;;;;;;;7.62;100.00;102048.75;10589123;28;20043;-61
2021/10/15 18:05:11;;;;;;;35.75;12.50;;;;;;;7.59;100.00;102047.06;10589505;28;20130;-61
2021/10/15 18:10:13;;;;;;;32.83;12.05;;;;;;;7.62;100.00;102049.59;10588864;28;20047;-61
2021/10/15 18:15:15;;;;;;;20.70;6.82;;;;;;;7.42;100.00;102051.84;10588700;28;20138;-61
2021/10/15 18:20:19;;;;;;;19.95;5.47;;;;;;;7.41;100.00;102056.19;10588622;28;20043;-61
2021/10/15 18:25:22;;;;;;;9.40;3.15;;;;;;;7.35;100.00;102056.34;10588237;28;20047;-60
2021/10/15 18:30:25;;;;;;;10.70;2.42;;;;;;;7.31;100.00;102065.09;10588073;28;20046;-61
2021/10/15 18:35:27;;;;;;;16.45;2.92;;;;;;;7.21;100.00;102058.41;10588203;28;20055;-61
2021/10/15 18:40:29;;;;;;;6.20;2.55;;;;;;;7.27;100.00;102063.47;10587754;28;20040;-61
2021/10/15 18:45:32;;;;;;;10.40;2.22;;;;;;;7.16;100.00;102061.13;10569277;28;20407;-61
2021/10/15 18:50:34;;;;;;;4.82;1.90;;;;;;;7.10;100.00;102066.47;10569034;28;20044;-61
2021/10/15 18:55:37;;;;;;;13.15;3.30;;;;;;;7.11;100.00;102059.50;10587296;28;20411;-60
2021/10/15 19:00:40;;;;;;;10.10;2.80;;;;;;;6.99;100.00;102065.84;10586637;28;20044;-61
2021/10/15 19:05:42;;;;;;;10.05;3.05;;;;;;;7.09;100.00;102066.50;10586689;28;20040;-60
2021/10/15 19:10:44;;;;;;;11.40;2.92;;;;;;;6.78;100.00;102065.41;10586242;28;20051;-61
2021/10/15 19:15:47;;;;;;;12.95;2.90;;;;;;;6.95;100.00;102069.41;10586300;28;20048;-60
2021/10/15 19:20:49;;;;;;;12.93;2.47;;;;;;;6.79;100.00;102074.06;10586337;28;20039;-61
2021/10/15 19:25:55;;;;;;;17.38;3.45;;;;;;;6.74;100.00;102076.81;10585971;28;20052;-60
2021/10/15 19:30:57;;;;;;;15.40;2.63;;;;;;;6.65;100.00;102077.81;10585820;28;20048;-61
2021/10/15 19:36:00;;;;;;;10.27;2.42;;;;;;;6.62;100.00;102080.50;10567506;28;20055;-60
2021/10/15 19:41:02;;;;;;;13.50;2.85;;;;;;;6.62;100.00;102079.63;10566810;28;20391;-61
2021/10/15 19:46:05;;;;;;;11.13;2.70;;;;;;;6.49;100.00;102084.25;10585398;28;20054;-61
2021/10/15 19:51:07;;;;;;;14.55;3.00;;;;;;;6.46;100.00;102095.56;10584582;28;20047;-60
2021/10/15 19:56:10;;;;;;;10.48;2.95;;;;;;;6.40;100.00;102094.81;10585046;28;20047;-60
2021/10/15 20:01:13;;;;;;;13.70;2.60;;;;;;;6.32;100.00;102100.16;10584395;28;20082;-60
2021/10/15 20:06:16;;;;;;;11.65;2.70;;;;;;;6.54;100.00;102091.94;10583978;28;20493;-61
2021/10/15 20:11:19;;;;;;;13.70;3.17;;;;;;;6.35;100.00;102089.69;10584084;28;20075;-61
2021/10/15 20:16:21;;;;;;;8.93;3.13;;;;;;;6.33;100.00;102099.28;10584379;28;20053;-61
2021/10/15 20:21:23;;;;;;;13.95;3.70;;;;;;;6.26;100.00;102105.50;10583247;28;20044;-60
2021/10/15 20:26:26;;;;;;;15.82;4.70;;;;;;;6.19;100.00;102099.53;10583369;28;20111;-60
2021/10/15 20:31:28;;;;;;;15.15;5.20;;;;;;;6.24;100.00;102105.50;10583451;28;20047;-60
2021/10/15 20:36:31;;;;;;;19.77;4.50;;;;;;;6.25;100.00;102103.75;10583033;28;20085;-60
2021/10/15 20:41:33;;;;;;;9.60;4.47;;;;;;;6.18;100.00;102108.22;10582486;28;20046;-60
2021/10/15 20:46:36;;;;;;;10.10;3.60;;;;;;;6.14;100.00;102114.38;10583023;28;20047;-60
2021/10/15 20:51:38;;;;;;;15.40;3.92;;;;;;;6.10;100.00;102110.09;10583063;28;20047;-60
2021/10/15 20:56:41;;;;;;;12.10;3.38;;;;;;;6.18;100.00;102113.41;10548109;28;20051;-60
2021/10/15 21:01:43;;;;;;;9.98;2.90;;;;;;;6.17;100.00;102116.03;10582137;28;20513;-60
2021/10/15 21:06:46;;;;;;;15.27;3.67;;;;;;;6.06;100.00;102116.25;10582740;28;20073;-60
2021/10/15 21:11:48;;;;;;;19.25;4.22;;;;;;;5.98;100.00;102129.38;10581838;28;20044;-60
2021/10/15 21:16:50;;;;;;;8.60;2.50;;;;;;;5.97;100.00;102124.19;10582745;28;20052;-60
2021/10/15 21:21:53;;;;;;;15.65;3.47;;;;;;;5.95;100.00;102129.38;10581602;28;20047;-60
2021/10/15 21:26:55;;;;;;;12.02;3.33;;;;;;;5.89;100.00;102135.53;10581675;28;20059;-60
2021/10/15 21:31:57;;;;;;;11.98;3.17;;;;;;;5.92;100.00;102140.69;10586760;28;20040;-60
2021/10/15 21:37:00;;;;;;;11.00;2.50;;;;;;;5.84;100.00;102139.13;10590046;28;20058;-59
2021/10/15 21:42:03;;;;;;;16.33;3.92;;;;;;;5.78;100.00;102145.25;10590116;28;20044;-59
2021/10/15 21:47:05;;;;;;;9.27;2.80;;;;;;;5.89;100.00;102137.28;10590023;28;20044;-60
2021/10/15 21:52:07;;;;;;;16.60;3.13;;;;;;;5.71;100.00;102144.47;10589330;28;20051;-60
2021/10/15 21:57:10;;;;;;;11.52;2.75;;;;;;;5.70;100.00;102147.09;10589963;28;20048;-60
2021/10/15 22:02:12;;;;;;;14.27;3.00;;;;;;;5.74;100.00;102157.44;10589247;28;20040;-60
2021/10/15 22:07:15;;;;;;;16.63;4.28;;;;;;;5.67;100.00;102155.81;10589225;28;20044;-60
2021/10/15 22:12:17;;;;;;;12.45;3.47;;;;;;;5.61;100.00;102149.84;10588875;28;20046;-60
2021/10/15 22:17:19;;;;;;;11.65;2.83;;;;;;;5.74;100.00;102148.78;10588457;28;20052;-60
2021/10/15 22:22:22;;;;;;;12.90;4.10;;;;;;;5.59;100.00;102148.13;10588228;28;20050;-60
2021/10/15 22:27:24;;;;;;;16.13;3.20;;;;;;;5.64;100.00;102144.63;10588131;28;20056;-60
2021/10/15 22:32:27;;;;;;;14.50;3.20;;;;;;;5.64;100.00;102153.25;10588554;28;20122;-60
2021/10/15 22:37:29;;;;;;;12.68;3.10;;;;;;;5.60;100.00;102151.59;10569580;28;20526;-60
2021/10/15 22:42:33;;;;;;;9.02;2.75;;;;;;;5.62;100.00;102156.78;10587437;28;20047;-60
2021/10/15 22:47:35;;;;;;;7.22;2.67;;;;;;;5.70;100.00;102147.97;10587745;28;20048;-60
2021/10/15 22:52:38;;;;;;;17.85;3.67;;;;;;;5.54;100.00;102154.28;10586977;28;20051;-60
2021/10/15 22:57:41;;;;;;;9.30;2.70;;;;;;;5.58;100.00;102149.03;10587081;28;20062;-60
2021/10/15 23:02:45;;;;;;;14.82;4.35;;;;;;;5.48;100.00;102147.44;10586709;28;20058;-60
2021/10/15 23:07:48;;;;;;;15.30;4.70;;;;;;;5.42;100.00;102162.25;10586579;28;20043;-59
2021/10/15 23:12:50;;;;;;;13.02;3.78;;;;;;;5.35;100.00;102156.28;10586189;28;20039;-60
2021/10/15 23:17:53;;;;;;;17.33;3.88;;;;;;;5.42;100.00;102157.91;10586021;28;20403;-60
2021/10/15 23:22:57;;;;;;;16.95;4.03;;;;;;;5.51;100.00;102162.13;10586047;28;20051;-60
2021/10/15 23:27:59;;;;;;;15.07;3.67;;;;;;;5.39;100.00;102153.59;10585233;28;20078;-60